sensor_id;sensor_type;location;lat;lon;timestamp;P1;durP1;ratioP1;P2;durP2;ratioP2
59468;SDS011;45277;52.768;18.262;2023-08-12T00:00:37;16.48;;;8.30;;
59468;SDS011;45277;52.768;18.262;2023-08-12T00:02:29;12.38;;;7.47;;
59468;SDS011;45277;52.768;18.262;2023-08-12T00:04:01;12.00;;;8.70;;
59468;SDS011;45277;52.768;18.262;2023-08-12T00:05:32;15.38;;;8.63;;
59468;SDS011;45277;52.768;18.262;2023-08-12T00:07:06;13.77;;;7.45;;
59468;SDS011;45277;52.768;18.262;2023-08-12T00:08:37;14.85;;;8.15;;
59468;SDS011;45277;52.768;18.262;2023-08-12T00:10:09;11.05;;;7.32;;
59468;SDS011;45277;52.768;18.262;2023-08-12T00:11:42;13.77;;;7.47;;
59468;SDS011;45277;52.768;18.262;2023-08-12T00:13:13;11.75;;;7.10;;
59468;SDS011;45277;52.768;18.262;2023-08-12T00:14:47;11.07;;;7.60;;
59468;SDS011;45277;52.768;18.262;2023-08-12T00:16:19;10.40;;;7.93;;
59468;SDS011;45277;52.768;18.262;2023-08-12T00:17:50;10.13;;;7.93;;
59468;SDS011;45277;52.768;18.262;2023-08-12T00:19:22;13.50;;;7.60;;
59468;SDS011;45277;52.768;18.262;2023-08-12T00:20:54;13.55;;;7.60;;
59468;SDS011;45277;52.768;18.262;2023-08-12T00:22:25;13.80;;;7.80;;
59468;SDS011;45277;52.768;18.262;2023-08-12T00:23:56;10.60;;;7.18;;
59468;SDS011;45277;52.768;18.262;2023-08-12T00:25:28;10.48;;;7.05;;
59468;SDS011;45277;52.768;18.262;2023-08-12T00:26:59;13.68;;;8.13;;
59468;SDS011;45277;52.768;18.262;2023-08-12T00:28:31;11.57;;;7.80;;
59468;SDS011;45277;52.768;18.262;2023-08-12T00:30:02;14.75;;;8.00;;
59468;SDS011;45277;52.768;18.262;2023-08-12T00:31:34;14.15;;;8.35;;
59468;SDS011;45277;52.768;18.262;2023-08-12T00:33:06;15.45;;;9.32;;
59468;SDS011;45277;52.768;18.262;2023-08-12T00:34:37;13.30;;;8.55;;
59468;SDS011;45277;52.768;18.262;2023-08-12T00:36:08;13.43;;;7.90;;
59468;SDS011;45277;52.768;18.262;2023-08-12T00:37:40;13.63;;;8.82;;
59468;SDS011;45277;52.768;18.262;2023-08-12T00:39:11;14.85;;;8.35;;
59468;SDS011;45277;52.768;18.262;2023-08-12T00:40:43;17.02;;;8.07;;
59468;SDS011;45277;52.768;18.262;2023-08-12T00:42:14;15.85;;;8.35;;
59468;SDS011;45277;52.768;18.262;2023-08-12T00:43:46;12.27;;;8.23;;
59468;SDS011;45277;52.768;18.262;2023-08-12T00:45:17;12.35;;;8.15;;
59468;SDS011;45277;52.768;18.262;2023-08-12T00:46:48;13.18;;;7.63;;
59468;SDS011;45277;52.768;18.262;2023-08-12T00:48:20;11.73;;;7.93;;
59468;SDS011;45277;52.768;18.262;2023-08-12T00:49:53;12.90;;;7.78;;
59468;SDS011;45277;52.768;18.262;2023-08-12T00:51:27;12.93;;;7.85;;
59468;SDS011;45277;52.768;18.262;2023-08-12T00:52:59;10.52;;;7.63;;
59468;SDS011;45277;52.768;18.262;2023-08-12T00:54:30;12.38;;;7.65;;
59468;SDS011;45277;52.768;18.262;2023-08-12T00:56:02;14.70;;;8.10;;
59468;SDS011;45277;52.768;18.262;2023-08-12T00:57:33;13.10;;;8.00;;
59468;SDS011;45277;52.768;18.262;2023-08-12T00:59:07;14.10;;;8.55;;
59468;SDS011;45277;52.768;18.262;2023-08-12T01:00:41;11.77;;;8.45;;
59468;SDS011;45277;52.768;18.262;2023-08-12T01:02:13;14.35;;;8.65;;
59468;SDS011;45277;52.768;18.262;2023-08-12T01:03:45;15.68;;;8.07;;
59468;SDS011;45277;52.768;18.262;2023-08-12T01:05:16;12.63;;;8.50;;
59468;SDS011;45277;52.768;18.262;2023-08-12T01:06:48;15.40;;;8.35;;
59468;SDS011;45277;52.768;18.262;2023-08-12T01:08:20;13.32;;;8.32;;
59468;SDS011;45277;52.768;18.262;2023-08-12T01:09:52;11.82;;;7.82;;
59468;SDS011;45277;52.768;18.262;2023-08-12T01:13:02;14.50;;;9.25;;
59468;SDS011;45277;52.768;18.262;2023-08-12T01:14:58;13.00;;;9.02;;
59468;SDS011;45277;52.768;18.262;2023-08-12T01:16:39;12.63;;;8.43;;
59468;SDS011;45277;52.768;18.262;2023-08-12T01:18:16;11.63;;;8.68;;
59468;SDS011;45277;52.768;18.262;2023-08-12T01:19:48;12.95;;;9.23;;
59468;SDS011;45277;52.768;18.262;2023-08-12T01:21:22;11.65;;;8.30;;
59468;SDS011;45277;52.768;18.262;2023-08-12T01:23:08;19.00;;;9.80;;
59468;SDS011;45277;52.768;18.262;2023-08-12T01:24:43;13.88;;;7.82;;
59468;SDS011;45277;52.768;18.262;2023-08-12T01:26:15;14.45;;;8.82;;
59468;SDS011;45277;52.768;18.262;2023-08-12T01:27:46;13.32;;;7.78;;
59468;SDS011;45277;52.768;18.262;2023-08-12T01:29:18;11.68;;;7.45;;
59468;SDS011;45277;52.768;18.262;2023-08-12T01:30:57;9.52;;;7.57;;
59468;SDS011;45277;52.768;18.262;2023-08-12T01:32:43;13.60;;;8.45;;
59468;SDS011;45277;52.768;18.262;2023-08-12T01:34:30;12.98;;;8.38;;
59468;SDS011;45277;52.768;18.262;2023-08-12T01:36:11;12.27;;;8.13;;
59468;SDS011;45277;52.768;18.262;2023-08-12T01:37:47;11.68;;;7.75;;
59468;SDS011;45277;52.768;18.262;2023-08-12T01:39:21;11.43;;;8.02;;
59468;SDS011;45277;52.768;18.262;2023-08-12T01:40:54;13.73;;;8.25;;
59468;SDS011;45277;52.768;18.262;2023-08-12T01:42:26;12.68;;;7.40;;
59468;SDS011;45277;52.768;18.262;2023-08-12T01:43:59;10.07;;;7.55;;
59468;SDS011;45277;52.768;18.262;2023-08-12T01:45:30;10.43;;;8.07;;
59468;SDS011;45277;52.768;18.262;2023-08-12T01:47:08;13.13;;;7.93;;
59468;SDS011;45277;52.768;18.262;2023-08-12T01:48:40;16.52;;;7.85;;
59468;SDS011;45277;52.768;18.262;2023-08-12T01:50:11;12.52;;;7.88;;
59468;SDS011;45277;52.768;18.262;2023-08-12T01:51:42;14.60;;;7.72;;
59468;SDS011;45277;52.768;18.262;2023-08-12T01:53:14;11.70;;;7.47;;
59468;SDS011;45277;52.768;18.262;2023-08-12T01:54:45;10.25;;;7.43;;
59468;SDS011;45277;52.768;18.262;2023-08-12T01:56:17;10.63;;;7.80;;
59468;SDS011;45277;52.768;18.262;2023-08-12T01:57:48;11.20;;;7.50;;
59468;SDS011;45277;52.768;18.262;2023-08-12T01:59:19;10.00;;;6.90;;
59468;SDS011;45277;52.768;18.262;2023-08-12T02:00:51;11.85;;;7.60;;
59468;SDS011;45277;52.768;18.262;2023-08-12T02:02:23;12.38;;;7.90;;
59468;SDS011;45277;52.768;18.262;2023-08-12T02:03:54;11.15;;;7.15;;
59468;SDS011;45277;52.768;18.262;2023-08-12T02:05:25;9.48;;;7.00;;
59468;SDS011;45277;52.768;18.262;2023-08-12T02:06:56;12.27;;;7.10;;
59468;SDS011;45277;52.768;18.262;2023-08-12T02:08:28;10.43;;;7.53;;
59468;SDS011;45277;52.768;18.262;2023-08-12T02:09:59;10.55;;;7.13;;
59468;SDS011;45277;52.768;18.262;2023-08-12T02:11:30;9.48;;;6.75;;
59468;SDS011;45277;52.768;18.262;2023-08-12T02:13:02;9.23;;;7.32;;
59468;SDS011;45277;52.768;18.262;2023-08-12T02:14:34;9.65;;;7.20;;
59468;SDS011;45277;52.768;18.262;2023-08-12T02:16:06;14.82;;;7.47;;
59468;SDS011;45277;52.768;18.262;2023-08-12T02:17:38;9.93;;;7.22;;
59468;SDS011;45277;52.768;18.262;2023-08-12T02:19:09;12.63;;;7.93;;
59468;SDS011;45277;52.768;18.262;2023-08-12T02:20:41;12.55;;;7.60;;
59468;SDS011;45277;52.768;18.262;2023-08-12T02:22:12;10.40;;;8.27;;
59468;SDS011;45277;52.768;18.262;2023-08-12T02:23:44;12.27;;;8.30;;
59468;SDS011;45277;52.768;18.262;2023-08-12T02:25:15;11.75;;;7.40;;
59468;SDS011;45277;52.768;18.262;2023-08-12T02:26:46;11.07;;;7.65;;
59468;SDS011;45277;52.768;18.262;2023-08-12T02:28:18;11.38;;;8.48;;
59468;SDS011;45277;52.768;18.262;2023-08-12T02:29:49;13.70;;;8.60;;
59468;SDS011;45277;52.768;18.262;2023-08-12T02:31:20;12.98;;;7.88;;
59468;SDS011;45277;52.768;18.262;2023-08-12T02:32:52;14.32;;;8.75;;
59468;SDS011;45277;52.768;18.262;2023-08-12T02:34:23;13.88;;;9.23;;
59468;SDS011;45277;52.768;18.262;2023-08-12T02:35:54;16.13;;;9.52;;
59468;SDS011;45277;52.768;18.262;2023-08-12T02:37:26;15.02;;;9.35;;
59468;SDS011;45277;52.768;18.262;2023-08-12T02:38:57;14.90;;;10.07;;
59468;SDS011;45277;52.768;18.262;2023-08-12T02:40:28;13.15;;;9.05;;
59468;SDS011;45277;52.768;18.262;2023-08-12T02:42:00;14.00;;;9.20;;
59468;SDS011;45277;52.768;18.262;2023-08-12T02:43:31;13.88;;;9.57;;
59468;SDS011;45277;52.768;18.262;2023-08-12T02:45:02;14.38;;;8.90;;
59468;SDS011;45277;52.768;18.262;2023-08-12T02:46:34;13.88;;;9.07;;
59468;SDS011;45277;52.768;18.262;2023-08-12T02:48:05;13.43;;;9.60;;
59468;SDS011;45277;52.768;18.262;2023-08-12T02:49:37;14.30;;;9.15;;
59468;SDS011;45277;52.768;18.262;2023-08-12T02:51:08;11.63;;;8.00;;
59468;SDS011;45277;52.768;18.262;2023-08-12T02:52:40;11.93;;;8.88;;
59468;SDS011;45277;52.768;18.262;2023-08-12T02:54:11;11.18;;;7.55;;
59468;SDS011;45277;52.768;18.262;2023-08-12T02:55:46;15.48;;;9.20;;
59468;SDS011;45277;52.768;18.262;2023-08-12T02:57:17;11.20;;;8.02;;
59468;SDS011;45277;52.768;18.262;2023-08-12T02:58:48;13.60;;;8.90;;
59468;SDS011;45277;52.768;18.262;2023-08-12T03:00:20;12.32;;;8.25;;
59468;SDS011;45277;52.768;18.262;2023-08-12T03:01:52;12.35;;;9.25;;
59468;SDS011;45277;52.768;18.262;2023-08-12T03:03:23;16.02;;;9.25;;
59468;SDS011;45277;52.768;18.262;2023-08-12T03:04:55;17.15;;;10.30;;
59468;SDS011;45277;52.768;18.262;2023-08-12T03:06:26;12.98;;;9.13;;
59468;SDS011;45277;52.768;18.262;2023-08-12T03:07:57;15.95;;;9.48;;
59468;SDS011;45277;52.768;18.262;2023-08-12T03:09:32;17.73;;;9.93;;
59468;SDS011;45277;52.768;18.262;2023-08-12T03:11:03;15.05;;;9.85;;
59468;SDS011;45277;52.768;18.262;2023-08-12T03:12:35;12.65;;;9.18;;
59468;SDS011;45277;52.768;18.262;2023-08-12T03:14:06;15.02;;;10.32;;
59468;SDS011;45277;52.768;18.262;2023-08-12T03:15:40;16.13;;;9.95;;
59468;SDS011;45277;52.768;18.262;2023-08-12T03:17:13;15.88;;;10.90;;
59468;SDS011;45277;52.768;18.262;2023-08-12T03:18:45;14.18;;;9.10;;
59468;SDS011;45277;52.768;18.262;2023-08-12T03:20:16;15.77;;;9.82;;
59468;SDS011;45277;52.768;18.262;2023-08-12T03:21:47;14.70;;;9.88;;
59468;SDS011;45277;52.768;18.262;2023-08-12T03:23:19;13.98;;;9.52;;
59468;SDS011;45277;52.768;18.262;2023-08-12T03:24:50;13.77;;;9.60;;
59468;SDS011;45277;52.768;18.262;2023-08-12T03:26:21;19.90;;;9.98;;
59468;SDS011;45277;52.768;18.262;2023-08-12T03:27:53;14.98;;;9.85;;
59468;SDS011;45277;52.768;18.262;2023-08-12T03:29:24;14.23;;;9.35;;
59468;SDS011;45277;52.768;18.262;2023-08-12T03:30:55;13.77;;;9.70;;
59468;SDS011;45277;52.768;18.262;2023-08-12T03:32:27;14.02;;;9.40;;
59468;SDS011;45277;52.768;18.262;2023-08-12T03:33:58;12.60;;;9.38;;
59468;SDS011;45277;52.768;18.262;2023-08-12T03:35:29;14.30;;;9.32;;
59468;SDS011;45277;52.768;18.262;2023-08-12T03:37:01;14.65;;;8.90;;
59468;SDS011;45277;52.768;18.262;2023-08-12T03:38:32;19.10;;;10.52;;
59468;SDS011;45277;52.768;18.262;2023-08-12T03:40:06;15.10;;;9.52;;
59468;SDS011;45277;52.768;18.262;2023-08-12T03:41:38;16.23;;;9.77;;
59468;SDS011;45277;52.768;18.262;2023-08-12T03:43:10;15.30;;;9.35;;
59468;SDS011;45277;52.768;18.262;2023-08-12T03:44:41;15.55;;;10.65;;
59468;SDS011;45277;52.768;18.262;2023-08-12T03:46:13;15.75;;;10.15;;
59468;SDS011;45277;52.768;18.262;2023-08-12T03:47:44;16.83;;;11.27;;
59468;SDS011;45277;52.768;18.262;2023-08-12T03:49:16;14.65;;;10.60;;
59468;SDS011;45277;52.768;18.262;2023-08-12T03:50:47;15.10;;;11.02;;
59468;SDS011;45277;52.768;18.262;2023-08-12T03:52:19;14.75;;;9.93;;
59468;SDS011;45277;52.768;18.262;2023-08-12T03:53:50;16.48;;;10.80;;
59468;SDS011;45277;52.768;18.262;2023-08-12T03:55:22;15.80;;;9.40;;
59468;SDS011;45277;52.768;18.262;2023-08-12T03:56:53;18.02;;;11.23;;
59468;SDS011;45277;52.768;18.262;2023-08-12T03:58:24;15.55;;;10.90;;
59468;SDS011;45277;52.768;18.262;2023-08-12T03:59:56;14.80;;;9.93;;
59468;SDS011;45277;52.768;18.262;2023-08-12T04:01:28;14.02;;;9.88;;
59468;SDS011;45277;52.768;18.262;2023-08-12T04:02:59;13.85;;;9.63;;
59468;SDS011;45277;52.768;18.262;2023-08-12T04:04:31;17.10;;;10.45;;
59468;SDS011;45277;52.768;18.262;2023-08-12T04:06:02;15.20;;;10.30;;
59468;SDS011;45277;52.768;18.262;2023-08-12T04:07:35;14.63;;;9.27;;
59468;SDS011;45277;52.768;18.262;2023-08-12T04:09:07;15.90;;;9.75;;
59468;SDS011;45277;52.768;18.262;2023-08-12T04:10:38;14.98;;;9.90;;
59468;SDS011;45277;52.768;18.262;2023-08-12T04:12:10;12.77;;;9.38;;
59468;SDS011;45277;52.768;18.262;2023-08-12T04:13:41;14.98;;;9.45;;
59468;SDS011;45277;52.768;18.262;2023-08-12T04:15:13;13.18;;;8.88;;
59468;SDS011;45277;52.768;18.262;2023-08-12T04:16:44;13.48;;;9.63;;
59468;SDS011;45277;52.768;18.262;2023-08-12T04:18:16;15.30;;;9.90;;
59468;SDS011;45277;52.768;18.262;2023-08-12T04:19:48;14.32;;;9.00;;
59468;SDS011;45277;52.768;18.262;2023-08-12T04:21:20;12.70;;;9.50;;
59468;SDS011;45277;52.768;18.262;2023-08-12T04:22:51;14.63;;;9.80;;
59468;SDS011;45277;52.768;18.262;2023-08-12T04:24:23;16.83;;;10.10;;
59468;SDS011;45277;52.768;18.262;2023-08-12T04:25:54;13.85;;;9.27;;
59468;SDS011;45277;52.768;18.262;2023-08-12T04:27:25;15.23;;;9.07;;
59468;SDS011;45277;52.768;18.262;2023-08-12T04:28:56;12.07;;;8.73;;
59468;SDS011;45277;52.768;18.262;2023-08-12T04:30:28;15.52;;;9.50;;
59468;SDS011;45277;52.768;18.262;2023-08-12T04:31:59;17.75;;;8.93;;
59468;SDS011;45277;52.768;18.262;2023-08-12T04:33:31;14.50;;;8.82;;
59468;SDS011;45277;52.768;18.262;2023-08-12T04:35:02;15.13;;;9.32;;
59468;SDS011;45277;52.768;18.262;2023-08-12T04:36:34;14.05;;;9.52;;
59468;SDS011;45277;52.768;18.262;2023-08-12T04:38:05;13.23;;;8.73;;
59468;SDS011;45277;52.768;18.262;2023-08-12T04:39:36;15.32;;;8.98;;
59468;SDS011;45277;52.768;18.262;2023-08-12T04:41:08;12.05;;;8.80;;
59468;SDS011;45277;52.768;18.262;2023-08-12T04:42:39;15.93;;;8.98;;
59468;SDS011;45277;52.768;18.262;2023-08-12T04:44:11;18.35;;;9.50;;
59468;SDS011;45277;52.768;18.262;2023-08-12T04:45:44;14.23;;;8.95;;
59468;SDS011;45277;52.768;18.262;2023-08-12T04:47:17;14.35;;;8.30;;
59468;SDS011;45277;52.768;18.262;2023-08-12T04:48:48;15.60;;;8.45;;
59468;SDS011;45277;52.768;18.262;2023-08-12T04:50:20;13.00;;;8.57;;
59468;SDS011;45277;52.768;18.262;2023-08-12T04:51:51;12.60;;;8.25;;
59468;SDS011;45277;52.768;18.262;2023-08-12T04:53:25;13.82;;;8.50;;
59468;SDS011;45277;52.768;18.262;2023-08-12T04:54:57;12.68;;;7.70;;
59468;SDS011;45277;52.768;18.262;2023-08-12T04:56:28;11.05;;;7.63;;
59468;SDS011;45277;52.768;18.262;2023-08-12T04:58:00;13.52;;;7.85;;
59468;SDS011;45277;52.768;18.262;2023-08-12T04:59:32;12.00;;;8.00;;
59468;SDS011;45277;52.768;18.262;2023-08-12T05:01:03;11.63;;;7.68;;
59468;SDS011;45277;52.768;18.262;2023-08-12T05:02:35;9.35;;;7.53;;
59468;SDS011;45277;52.768;18.262;2023-08-12T05:04:07;11.73;;;7.53;;
59468;SDS011;45277;52.768;18.262;2023-08-12T05:05:38;11.98;;;7.28;;
59468;SDS011;45277;52.768;18.262;2023-08-12T05:07:09;11.10;;;7.28;;
59468;SDS011;45277;52.768;18.262;2023-08-12T05:08:41;11.07;;;7.38;;
59468;SDS011;45277;52.768;18.262;2023-08-12T05:10:12;12.55;;;7.32;;
59468;SDS011;45277;52.768;18.262;2023-08-12T05:11:43;13.65;;;7.38;;
59468;SDS011;45277;52.768;18.262;2023-08-12T05:13:16;13.68;;;7.07;;
59468;SDS011;45277;52.768;18.262;2023-08-12T05:14:47;9.48;;;6.43;;
59468;SDS011;45277;52.768;18.262;2023-08-12T05:16:18;9.60;;;6.80;;
59468;SDS011;45277;52.768;18.262;2023-08-12T05:17:50;10.45;;;6.75;;
59468;SDS011;45277;52.768;18.262;2023-08-12T05:19:22;11.07;;;6.57;;
59468;SDS011;45277;52.768;18.262;2023-08-12T05:20:53;12.02;;;7.15;;
59468;SDS011;45277;52.768;18.262;2023-08-12T05:22:25;9.68;;;6.72;;
59468;SDS011;45277;52.768;18.262;2023-08-12T05:23:56;12.77;;;7.03;;
59468;SDS011;45277;52.768;18.262;2023-08-12T05:25:27;10.05;;;6.88;;
59468;SDS011;45277;52.768;18.262;2023-08-12T05:26:59;10.07;;;6.15;;
59468;SDS011;45277;52.768;18.262;2023-08-12T05:28:30;10.60;;;6.65;;
59468;SDS011;45277;52.768;18.262;2023-08-12T05:30:02;10.88;;;6.72;;
59468;SDS011;45277;52.768;18.262;2023-08-12T05:31:34;9.20;;;5.82;;
59468;SDS011;45277;52.768;18.262;2023-08-12T05:33:05;7.78;;;5.78;;
59468;SDS011;45277;52.768;18.262;2023-08-12T05:34:36;8.55;;;5.38;;
59468;SDS011;45277;52.768;18.262;2023-08-12T05:36:08;10.05;;;5.70;;
59468;SDS011;45277;52.768;18.262;2023-08-12T05:37:39;6.32;;;5.00;;
59468;SDS011;45277;52.768;18.262;2023-08-12T05:39:11;9.43;;;5.50;;
59468;SDS011;45277;52.768;18.262;2023-08-12T05:40:43;8.45;;;5.80;;
59468;SDS011;45277;52.768;18.262;2023-08-12T05:42:14;7.95;;;4.93;;
59468;SDS011;45277;52.768;18.262;2023-08-12T05:43:45;8.77;;;5.43;;
59468;SDS011;45277;52.768;18.262;2023-08-12T05:45:18;10.75;;;5.30;;
59468;SDS011;45277;52.768;18.262;2023-08-12T05:46:49;8.27;;;4.90;;
59468;SDS011;45277;52.768;18.262;2023-08-12T05:48:20;12.15;;;5.35;;
59468;SDS011;45277;52.768;18.262;2023-08-12T05:49:52;6.53;;;4.30;;
59468;SDS011;45277;52.768;18.262;2023-08-12T05:51:23;8.52;;;4.65;;
59468;SDS011;45277;52.768;18.262;2023-08-12T05:52:54;6.40;;;4.50;;
59468;SDS011;45277;52.768;18.262;2023-08-12T05:54:26;7.25;;;4.30;;
59468;SDS011;45277;52.768;18.262;2023-08-12T05:55:57;6.10;;;4.00;;
59468;SDS011;45277;52.768;18.262;2023-08-12T05:57:28;6.00;;;4.10;;
59468;SDS011;45277;52.768;18.262;2023-08-12T05:59:00;9.15;;;4.40;;
59468;SDS011;45277;52.768;18.262;2023-08-12T06:00:31;8.20;;;3.92;;
59468;SDS011;45277;52.768;18.262;2023-08-12T06:02:03;5.47;;;3.88;;
59468;SDS011;45277;52.768;18.262;2023-08-12T06:03:35;6.38;;;4.30;;
59468;SDS011;45277;52.768;18.262;2023-08-12T06:05:06;7.68;;;4.18;;
59468;SDS011;45277;52.768;18.262;2023-08-12T06:06:38;7.03;;;3.88;;
59468;SDS011;45277;52.768;18.262;2023-08-12T06:08:09;7.30;;;3.70;;
59468;SDS011;45277;52.768;18.262;2023-08-12T06:09:41;6.32;;;3.80;;
59468;SDS011;45277;52.768;18.262;2023-08-12T06:11:12;5.55;;;3.70;;
59468;SDS011;45277;52.768;18.262;2023-08-12T06:12:44;5.85;;;3.50;;
59468;SDS011;45277;52.768;18.262;2023-08-12T06:14:16;5.25;;;3.38;;
59468;SDS011;45277;52.768;18.262;2023-08-12T06:15:47;6.40;;;3.58;;
59468;SDS011;45277;52.768;18.262;2023-08-12T06:17:18;5.65;;;3.30;;
59468;SDS011;45277;52.768;18.262;2023-08-12T06:18:50;6.55;;;3.60;;
59468;SDS011;45277;52.768;18.262;2023-08-12T06:20:22;6.30;;;4.07;;
59468;SDS011;45277;52.768;18.262;2023-08-12T06:21:54;8.20;;;3.40;;
59468;SDS011;45277;52.768;18.262;2023-08-12T06:23:25;5.70;;;3.63;;
59468;SDS011;45277;52.768;18.262;2023-08-12T06:24:57;6.40;;;4.25;;
59468;SDS011;45277;52.768;18.262;2023-08-12T06:26:28;6.88;;;3.58;;
59468;SDS011;45277;52.768;18.262;2023-08-12T06:27:59;8.45;;;3.95;;
59468;SDS011;45277;52.768;18.262;2023-08-12T06:29:32;6.18;;;3.40;;
59468;SDS011;45277;52.768;18.262;2023-08-12T06:31:03;6.63;;;4.10;;
59468;SDS011;45277;52.768;18.262;2023-08-12T06:32:35;6.70;;;3.83;;
59468;SDS011;45277;52.768;18.262;2023-08-12T06:34:06;7.35;;;3.63;;
59468;SDS011;45277;52.768;18.262;2023-08-12T06:35:38;6.82;;;3.50;;
59468;SDS011;45277;52.768;18.262;2023-08-12T06:37:10;6.65;;;3.55;;
59468;SDS011;45277;52.768;18.262;2023-08-12T06:38:41;3.63;;;2.88;;
59468;SDS011;45277;52.768;18.262;2023-08-12T06:40:13;3.30;;;2.65;;
59468;SDS011;45277;52.768;18.262;2023-08-12T06:41:44;3.53;;;2.95;;
59468;SDS011;45277;52.768;18.262;2023-08-12T06:43:15;4.13;;;2.80;;
59468;SDS011;45277;52.768;18.262;2023-08-12T06:44:54;5.30;;;2.83;;
59468;SDS011;45277;52.768;18.262;2023-08-12T06:46:30;6.90;;;3.17;;
59468;SDS011;45277;52.768;18.262;2023-08-12T06:48:01;2.80;;;2.55;;
59468;SDS011;45277;52.768;18.262;2023-08-12T06:49:33;5.47;;;3.03;;
59468;SDS011;45277;52.768;18.262;2023-08-12T06:51:05;3.75;;;2.60;;
59468;SDS011;45277;52.768;18.262;2023-08-12T06:52:40;5.65;;;2.58;;
59468;SDS011;45277;52.768;18.262;2023-08-12T06:54:12;4.35;;;2.78;;
59468;SDS011;45277;52.768;18.262;2023-08-12T06:55:44;3.13;;;2.47;;
59468;SDS011;45277;52.768;18.262;2023-08-12T06:57:16;4.15;;;2.78;;
59468;SDS011;45277;52.768;18.262;2023-08-12T06:58:48;5.30;;;2.90;;
59468;SDS011;45277;52.768;18.262;2023-08-12T07:00:20;4.63;;;2.65;;
59468;SDS011;45277;52.768;18.262;2023-08-12T07:01:51;5.00;;;2.53;;
59468;SDS011;45277;52.768;18.262;2023-08-12T07:03:23;5.05;;;2.63;;
59468;SDS011;45277;52.768;18.262;2023-08-12T07:04:55;2.90;;;2.60;;
59468;SDS011;45277;52.768;18.262;2023-08-12T07:06:26;2.75;;;2.45;;
59468;SDS011;45277;52.768;18.262;2023-08-12T07:07:58;5.35;;;2.92;;
59468;SDS011;45277;52.768;18.262;2023-08-12T07:09:29;8.00;;;2.88;;
59468;SDS011;45277;52.768;18.262;2023-08-12T07:11:01;6.38;;;3.10;;
59468;SDS011;45277;52.768;18.262;2023-08-12T07:12:32;6.10;;;2.65;;
59468;SDS011;45277;52.768;18.262;2023-08-12T07:14:04;3.33;;;2.67;;
59468;SDS011;45277;52.768;18.262;2023-08-12T07:15:35;2.97;;;2.38;;
59468;SDS011;45277;52.768;18.262;2023-08-12T07:17:07;7.35;;;2.50;;
59468;SDS011;45277;52.768;18.262;2023-08-12T07:18:38;2.42;;;2.22;;
59468;SDS011;45277;52.768;18.262;2023-08-12T07:20:10;2.83;;;2.38;;
59468;SDS011;45277;52.768;18.262;2023-08-12T07:21:41;4.25;;;2.47;;
59468;SDS011;45277;52.768;18.262;2023-08-12T07:23:13;4.47;;;2.50;;
59468;SDS011;45277;52.768;18.262;2023-08-12T07:24:44;10.90;;;3.15;;
59468;SDS011;45277;52.768;18.262;2023-08-12T07:26:16;3.45;;;2.33;;
59468;SDS011;45277;52.768;18.262;2023-08-12T07:27:48;4.40;;;2.70;;
59468;SDS011;45277;52.768;18.262;2023-08-12T07:29:20;8.13;;;2.75;;
59468;SDS011;45277;52.768;18.262;2023-08-12T07:30:52;5.25;;;3.30;;
59468;SDS011;45277;52.768;18.262;2023-08-12T07:32:23;4.43;;;2.30;;
59468;SDS011;45277;52.768;18.262;2023-08-12T07:33:54;3.90;;;2.60;;
59468;SDS011;45277;52.768;18.262;2023-08-12T07:35:26;3.00;;;2.42;;
59468;SDS011;45277;52.768;18.262;2023-08-12T07:36:57;3.10;;;2.20;;
59468;SDS011;45277;52.768;18.262;2023-08-12T07:38:29;3.25;;;2.25;;
59468;SDS011;45277;52.768;18.262;2023-08-12T07:40:01;3.75;;;2.47;;
59468;SDS011;45277;52.768;18.262;2023-08-12T07:41:33;4.25;;;2.40;;
59468;SDS011;45277;52.768;18.262;2023-08-12T07:43:05;5.25;;;2.40;;
59468;SDS011;45277;52.768;18.262;2023-08-12T07:44:37;7.78;;;2.35;;
59468;SDS011;45277;52.768;18.262;2023-08-12T07:46:08;2.95;;;2.10;;
59468;SDS011;45277;52.768;18.262;2023-08-12T07:47:39;4.57;;;2.97;;
59468;SDS011;45277;52.768;18.262;2023-08-12T07:49:11;5.18;;;2.17;;
59468;SDS011;45277;52.768;18.262;2023-08-12T07:50:43;3.92;;;2.30;;
59468;SDS011;45277;52.768;18.262;2023-08-12T07:52:14;3.40;;;2.22;;
59468;SDS011;45277;52.768;18.262;2023-08-12T07:53:45;2.83;;;2.13;;
59468;SDS011;45277;52.768;18.262;2023-08-12T07:55:17;5.70;;;2.40;;
59468;SDS011;45277;52.768;18.262;2023-08-12T07:56:49;4.85;;;2.40;;
59468;SDS011;45277;52.768;18.262;2023-08-12T07:58:21;4.32;;;2.20;;
59468;SDS011;45277;52.768;18.262;2023-08-12T07:59:54;2.42;;;2.10;;
59468;SDS011;45277;52.768;18.262;2023-08-12T08:01:25;3.45;;;2.20;;
59468;SDS011;45277;52.768;18.262;2023-08-12T08:02:57;2.35;;;2.05;;
59468;SDS011;45277;52.768;18.262;2023-08-12T08:04:28;2.95;;;2.13;;
59468;SDS011;45277;52.768;18.262;2023-08-12T08:05:59;4.60;;;2.40;;
59468;SDS011;45277;52.768;18.262;2023-08-12T08:07:31;4.65;;;2.20;;
59468;SDS011;45277;52.768;18.262;2023-08-12T08:09:03;3.47;;;2.30;;
59468;SDS011;45277;52.768;18.262;2023-08-12T08:10:34;3.08;;;2.17;;
59468;SDS011;45277;52.768;18.262;2023-08-12T08:12:07;5.88;;;2.10;;
59468;SDS011;45277;52.768;18.262;2023-08-12T08:13:40;2.30;;;1.95;;
59468;SDS011;45277;52.768;18.262;2023-08-12T08:15:11;4.25;;;2.53;;
59468;SDS011;45277;52.768;18.262;2023-08-12T08:16:43;2.22;;;1.83;;
59468;SDS011;45277;52.768;18.262;2023-08-12T08:18:14;3.67;;;2.20;;
59468;SDS011;45277;52.768;18.262;2023-08-12T08:19:50;2.90;;;2.10;;
59468;SDS011;45277;52.768;18.262;2023-08-12T08:21:23;3.15;;;2.10;;
59468;SDS011;45277;52.768;18.262;2023-08-12T08:22:55;4.38;;;2.20;;
59468;SDS011;45277;52.768;18.262;2023-08-12T08:24:26;3.33;;;2.33;;
59468;SDS011;45277;52.768;18.262;2023-08-12T08:25:58;5.15;;;2.00;;
59468;SDS011;45277;52.768;18.262;2023-08-12T08:27:29;2.95;;;2.50;;
59468;SDS011;45277;52.768;18.262;2023-08-12T08:29:02;2.13;;;1.90;;
59468;SDS011;45277;52.768;18.262;2023-08-12T08:30:34;4.35;;;2.10;;
59468;SDS011;45277;52.768;18.262;2023-08-12T08:32:05;4.93;;;2.45;;
59468;SDS011;45277;52.768;18.262;2023-08-12T08:33:37;4.03;;;2.00;;
59468;SDS011;45277;52.768;18.262;2023-08-12T08:35:09;2.30;;;2.00;;
59468;SDS011;45277;52.768;18.262;2023-08-12T08:36:40;2.00;;;1.90;;
59468;SDS011;45277;52.768;18.262;2023-08-12T08:38:12;4.88;;;2.20;;
59468;SDS011;45277;52.768;18.262;2023-08-12T08:39:43;4.68;;;2.22;;
59468;SDS011;45277;52.768;18.262;2023-08-12T08:41:15;2.10;;;1.90;;
59468;SDS011;45277;52.768;18.262;2023-08-12T08:42:48;2.10;;;1.90;;
59468;SDS011;45277;52.768;18.262;2023-08-12T08:44:24;3.35;;;1.90;;
59468;SDS011;45277;52.768;18.262;2023-08-12T08:46:03;2.33;;;2.13;;
59468;SDS011;45277;52.768;18.262;2023-08-12T08:47:36;1.98;;;1.77;;
59468;SDS011;45277;52.768;18.262;2023-08-12T08:49:08;3.00;;;1.83;;
59468;SDS011;45277;52.768;18.262;2023-08-12T08:50:41;3.30;;;2.58;;
59468;SDS011;45277;52.768;18.262;2023-08-12T08:52:13;2.63;;;2.00;;
59468;SDS011;45277;52.768;18.262;2023-08-12T08:53:46;2.90;;;2.17;;
59468;SDS011;45277;52.768;18.262;2023-08-12T08:55:18;2.95;;;2.05;;
59468;SDS011;45277;52.768;18.262;2023-08-12T08:56:50;2.05;;;1.90;;
59468;SDS011;45277;52.768;18.262;2023-08-12T08:58:22;3.50;;;2.30;;
59468;SDS011;45277;52.768;18.262;2023-08-12T08:59:54;4.82;;;2.00;;
59468;SDS011;45277;52.768;18.262;2023-08-12T09:01:25;2.75;;;1.80;;
59468;SDS011;45277;52.768;18.262;2023-08-12T09:03:00;2.83;;;2.15;;